Terminal Aerodrome Forecast
Issued by NWS

Home | Current Version | Previous Version | Graphics & Text | Print | Product List | Glossary On
Versions: 1 2 3 4 5 6 7 8 9 10 11 12 13 14 15 16 17 18 19 20 21 22
698
FTUS43 KGRB 271952 AAA
TAFATW
TAF AMD
KATW 271952Z 2720/2818 08007KT 6SM SHRA BR OVC015
      TEMPO 2720/2724 3SM -SHRA BKN006
     FM280000 01004KT 6SM BR BKN013
     FM280900 26003KT 1 1/2SM BR BKN008
      TEMPO 2809/2813 1/2SM FG VV001
     FM281400 29004KT P6SM SCT040=

USA.gov is the U.S. government's official web portal to all federal, state and local government web resources and services.